Time;durP1;ratioP1;P1;durP2;ratioP2;P2;SDS_P1;SDS_P2;PMS_P1;PMS_P2;Temp;Humidity;BMP_temperature;BMP_pressure;BME280_temperature;BME280_humidity;BME280_pressure;Samples;Min_cycle;Max_cycle;Signal;HPM_P1;HPM_P2
2021/07/01 00:00:11;;;;;;;0.95;0.17;;;17.40;92.00;;;;;;5054808;28;20021;-71
2021/07/01 00:02:37;;;;;;;0.10;0.10;;;17.40;92.20;;;;;;5054000;28;20025;-71
2021/07/01 00:05:05;;;;;;;0.60;0.40;;;17.40;92.40;;;;;;5053407;28;20460;-71
2021/07/01 00:07:31;;;;;;;1.05;0.30;;;17.10;92.90;;;;;;5054170;28;20395;-72
2021/07/01 00:09:57;;;;;;;2.88;0.47;;;17.10;92.60;;;;;;5054173;28;20081;-71
2021/07/01 00:12:23;;;;;;;2.28;0.68;;;17.00;92.60;;;;;;5054296;28;20419;-72
2021/07/01 00:14:48;;;;;;;0.47;0.20;;;16.80;92.90;;;;;;5054036;28;20040;-71
2021/07/01 00:17:14;;;;;;;1.92;0.40;;;16.60;93.20;;;;;;5052311;28;20368;-71
2021/07/01 00:19:40;;;;;;;0.45;0.22;;;16.50;93.40;;;;;;5053900;28;20029;-71
2021/07/01 00:22:05;;;;;;;0.90;0.38;;;16.50;93.30;;;;;;5054394;28;20035;-71
2021/07/01 00:24:31;;;;;;;0.73;0.30;;;16.70;93.20;;;;;;5053691;28;20487;-71
2021/07/01 00:26:57;;;;;;;1.27;0.40;;;16.60;93.40;;;;;;5053923;28;20061;-72
2021/07/01 00:29:22;;;;;;;2.30;0.22;;;16.60;93.30;;;;;;5053720;28;20115;-71
2021/07/01 00:31:48;;;;;;;0.65;0.30;;;16.60;93.50;;;;;;5053781;28;20029;-71
2021/07/01 00:34:14;;;;;;;1.48;0.77;;;16.60;93.30;;;;;;5053626;28;20444;-71
2021/07/01 00:36:40;;;;;;;0.90;0.35;;;16.40;93.60;;;;;;5043765;28;20029;-71
2021/07/01 00:39:06;;;;;;;1.33;0.43;;;16.70;93.30;;;;;;5047057;28;20024;-71
2021/07/01 00:41:33;;;;;;;0.85;0.40;;;16.50;93.60;;;;;;5051759;28;20047;-71
2021/07/01 00:44:01;;;;;;;2.15;0.38;;;16.30;93.70;;;;;;5050940;28;20490;-71
2021/07/01 00:46:29;;;;;;;0.50;0.28;;;16.20;94.00;;;;;;5051649;28;20032;-72
2021/07/01 00:48:54;;;;;;;2.70;0.60;;;16.00;94.30;;;;;;5051303;28;20105;-71
2021/07/01 00:51:20;;;;;;;4.63;0.50;;;16.20;94.30;;;;;;5051396;28;20100;-71
2021/07/01 00:53:46;;;;;;;0.73;0.40;;;16.20;94.00;;;;;;5051555;28;20036;-71
2021/07/01 00:56:14;;;;;;;0.52;0.28;;;16.40;93.90;;;;;;5053113;28;20137;-71
2021/07/01 00:58:40;;;;;;;0.93;0.45;;;16.30;94.00;;;;;;5053083;28;20086;-72
2021/07/01 01:01:06;;;;;;;0.80;0.43;;;16.30;94.00;;;;;;5053226;28;20712;-71
2021/07/01 01:03:34;;;;;;;0.88;0.40;;;16.30;94.00;;;;;;5053350;28;20082;-72
2021/07/01 01:05:59;;;;;;;0.70;0.30;;;16.30;94.00;;;;;;5053056;28;20029;-71
2021/07/01 01:08:25;;;;;;;1.42;0.60;;;16.20;94.20;;;;;;5053247;28;20082;-71
2021/07/01 01:10:52;;;;;;;0.77;0.30;;;16.20;94.30;;;;;;5053115;28;20040;-71
2021/07/01 01:13:26;;;;;;;1.77;0.50;;;16.10;94.40;;;;;;5052909;28;20399;-71
2021/07/01 01:16:02;;;;;;;2.47;0.60;;;16.30;94.10;;;;;;5053266;28;20383;-71
2021/07/01 01:18:29;;;;;;;1.00;0.30;;;16.30;94.10;;;;;;5052814;28;20043;-71
2021/07/01 01:20:57;;;;;;;1.70;0.50;;;16.20;94.20;;;;;;5052585;28;20775;-71
2021/07/01 01:23:24;;;;;;;1.77;0.20;;;16.30;94.20;;;;;;5052611;28;20052;-71
2021/07/01 01:25:52;;;;;;;0.38;0.30;;;16.20;94.20;;;;;;5052979;28;20025;-71
2021/07/01 01:28:18;;;;;;;1.08;0.43;;;16.40;94.00;;;;;;5052695;28;20037;-71
2021/07/01 01:30:44;;;;;;;1.33;0.32;;;16.20;94.20;;;;;;5052896;28;20033;-71
2021/07/01 01:33:11;;;;;;;1.30;0.52;;;16.30;94.00;;;;;;5052209;28;20025;-71
2021/07/01 01:35:37;;;;;;;0.93;0.30;;;16.40;93.90;;;;;;5052909;28;20053;-71
2021/07/01 01:38:08;;;;;;;0.57;0.30;;;16.60;93.80;;;;;;5038509;28;20139;-71
2021/07/01 01:40:34;;;;;;;4.60;0.88;;;16.50;93.70;;;;;;5039984;28;20025;-71
2021/07/01 01:43:00;;;;;;;1.42;0.40;;;16.40;93.70;;;;;;5050210;28;20390;-71
2021/07/01 01:45:25;;;;;;;1.60;0.40;;;16.40;93.90;;;;;;5050914;28;20684;-72
2021/07/01 01:47:51;;;;;;;0.80;0.38;;;16.40;93.80;;;;;;5050385;28;20037;-71
2021/07/01 01:50:19;;;;;;;1.08;0.45;;;16.30;94.00;;;;;;5050470;28;20746;-71
2021/07/01 01:52:46;;;;;;;0.60;0.30;;;16.30;94.10;;;;;;5050545;28;20523;-71
2021/07/01 01:55:13;;;;;;;1.27;0.30;;;16.30;93.80;;;;;;5049258;28;20025;-72
2021/07/01 01:57:46;;;;;;;1.35;0.32;;;16.30;93.90;;;;;;5052120;28;20075;-71
2021/07/01 02:00:15;;;;;;;0.60;0.30;;;16.20;93.80;;;;;;5052610;28;20029;-71
2021/07/01 02:02:42;;;;;;;1.15;0.30;;;16.30;93.80;;;;;;5051540;28;20029;-71
2021/07/01 02:05:09;;;;;;;1.10;0.40;;;16.20;93.90;;;;;;5047417;28;20361;-71
2021/07/01 02:07:35;;;;;;;0.17;0.15;;;16.30;93.80;;;;;;5042426;28;20124;-71
2021/07/01 02:10:07;;;;;;;0.52;0.25;;;16.30;93.80;;;;;;5051983;28;20550;-71
2021/07/01 02:12:32;;;;;;;1.05;0.50;;;16.20;93.80;;;;;;5051596;28;20043;-72
2021/07/01 02:14:59;;;;;;;0.93;0.28;;;16.20;94.20;;;;;;5052630;28;20095;-71
2021/07/01 02:17:25;;;;;;;0.43;0.30;;;16.10;94.00;;;;;;5052046;28;20554;-72
2021/07/01 02:19:51;;;;;;;1.75;0.40;;;16.20;94.10;;;;;;5051772;28;20104;-71
2021/07/01 02:22:16;;;;;;;1.13;0.45;;;16.30;93.90;;;;;;5051548;28;20025;-71
2021/07/01 02:24:42;;;;;;;3.35;0.22;;;16.20;94.10;;;;;;5051440;28;20071;-72
2021/07/01 02:27:09;;;;;;;0.93;0.40;;;16.20;94.10;;;;;;5051088;28;20494;-71
2021/07/01 02:29:35;;;;;;;1.35;0.55;;;16.10;94.30;;;;;;5051756;28;20033;-72
2021/07/01 02:32:00;;;;;;;1.63;0.43;;;15.80;94.60;;;;;;5051793;28;20379;-71
2021/07/01 02:34:28;;;;;;;0.90;0.55;;;15.70;95.00;;;;;;5050698;28;20052;-71
2021/07/01 02:36:54;;;;;;;0.77;0.32;;;15.70;95.10;;;;;;5051556;28;20027;-71
2021/07/01 02:39:20;;;;;;;2.55;0.50;;;15.50;95.50;;;;;;5050080;28;20029;-73
2021/07/01 02:41:45;;;;;;;2.22;0.30;;;15.50;95.70;;;;;;5050381;28;20068;-72
2021/07/01 02:44:11;;;;;;;0.93;0.30;;;15.30;95.60;;;;;;5049258;28;20033;-71
2021/07/01 02:46:37;;;;;;;2.22;0.30;;;15.50;95.60;;;;;;5049352;28;20032;-71
2021/07/01 02:49:02;;;;;;;0.52;0.28;;;15.60;95.40;;;;;;5050092;28;20422;-71
2021/07/01 02:51:28;;;;;;;1.55;0.52;;;15.50;95.40;;;;;;5049670;28;20025;-71
2021/07/01 02:53:54;;;;;;;0.90;0.57;;;15.70;95.20;;;;;;5049414;28;20021;-72
2021/07/01 02:56:21;;;;;;;0.68;0.30;;;15.70;95.00;;;;;;5049639;28;20056;-71
2021/07/01 02:58:47;;;;;;;0.77;0.30;;;15.60;95.20;;;;;;5051240;28;20035;-71
2021/07/01 03:01:14;;;;;;;0.50;0.28;;;15.50;95.30;;;;;;5051558;28;20051;-71
2021/07/01 03:03:39;;;;;;;3.60;0.80;;;15.30;95.60;;;;;;5035923;28;20567;-71
2021/07/01 03:06:05;;;;;;;0.45;0.30;;;15.50;95.40;;;;;;5044933;28;20135;-71
2021/07/01 03:08:31;;;;;;;1.30;0.40;;;15.40;95.60;;;;;;5048046;28;20067;-71
2021/07/01 03:10:56;;;;;;;1.10;0.43;;;15.60;95.40;;;;;;5048627;28;20548;-71
2021/07/01 03:13:22;;;;;;;1.85;0.35;;;15.60;95.30;;;;;;5047964;28;20039;-72
2021/07/01 03:15:48;;;;;;;1.20;0.40;;;15.60;95.20;;;;;;5047833;28;20036;-72
2021/07/01 03:18:13;;;;;;;0.35;0.25;;;15.60;95.30;;;;;;5047726;28;20028;-71
2021/07/01 03:20:39;;;;;;;1.83;0.75;;;15.40;95.40;;;;;;5048161;28;20086;-72
2021/07/01 03:23:05;;;;;;;1.13;0.43;;;15.50;95.30;;;;;;5047967;28;20033;-71
2021/07/01 03:25:31;;;;;;;0.80;0.40;;;15.60;95.50;;;;;;5047575;28;20487;-72
2021/07/01 03:27:57;;;;;;;1.38;0.60;;;15.50;95.30;;;;;;5047684;28;20373;-71
2021/07/01 03:30:23;;;;;;;2.35;0.63;;;15.50;95.50;;;;;;5046795;28;20021;-71
2021/07/01 03:32:49;;;;;;;1.80;0.50;;;15.50;95.50;;;;;;5046687;28;20625;-71
2021/07/01 03:35:15;;;;;;;1.40;0.50;;;15.50;95.30;;;;;;5047684;28;20056;-71
2021/07/01 03:37:41;;;;;;;1.15;0.50;;;15.50;95.50;;;;;;5047734;28;20487;-71
2021/07/01 03:40:09;;;;;;;1.15;0.40;;;15.50;95.70;;;;;;5045454;28;20032;-71
2021/07/01 03:42:34;;;;;;;1.38;0.47;;;15.30;95.80;;;;;;5040125;28;20032;-71
2021/07/01 03:45:00;;;;;;;2.35;0.43;;;15.40;96.00;;;;;;5045715;28;20022;-72
2021/07/01 03:47:26;;;;;;;0.50;0.20;;;15.40;95.90;;;;;;5046158;28;20040;-72
2021/07/01 03:49:52;;;;;;;2.35;0.60;;;15.50;95.40;;;;;;5046897;28;20029;-72
2021/07/01 03:52:18;;;;;;;1.83;0.45;;;15.70;95.20;;;;;;5047003;28;20241;-71
2021/07/01 03:54:43;;;;;;;1.27;0.55;;;15.70;95.00;;;;;;5046017;28;20489;-71
2021/07/01 03:57:09;;;;;;;0.85;0.30;;;15.80;95.00;;;;;;5047428;28;20025;-71
2021/07/01 03:59:35;;;;;;;3.30;0.47;;;15.70;95.10;;;;;;5047412;28;20029;-71
2021/07/01 04:02:01;;;;;;;0.70;0.30;;;15.70;95.20;;;;;;5046273;28;20025;-72
2021/07/01 04:04:27;;;;;;;1.35;0.50;;;15.70;95.20;;;;;;5047306;28;20033;-72
2021/07/01 04:06:52;;;;;;;2.35;0.32;;;15.70;95.20;;;;;;5046944;28;20043;-71
2021/07/01 04:09:18;;;;;;;0.68;0.40;;;15.60;95.50;;;;;;5046720;28;20468;-72
2021/07/01 04:11:44;;;;;;;1.55;0.40;;;15.70;95.40;;;;;;5045657;28;20032;-71
2021/07/01 04:14:12;;;;;;;0.73;0.30;;;15.60;95.40;;;;;;5046766;28;20678;-71
2021/07/01 04:16:38;;;;;;;2.92;0.60;;;15.50;95.60;;;;;;5046623;28;20039;-71
2021/07/01 04:19:04;;;;;;;1.25;0.65;;;15.40;95.80;;;;;;5045213;28;20463;-71
2021/07/01 04:21:29;;;;;;;1.77;0.93;;;15.30;95.90;;;;;;5046495;28;20021;-71
2021/07/01 04:23:57;;;;;;;1.75;0.52;;;15.20;96.10;;;;;;5046510;28;20386;-71
2021/07/01 04:26:23;;;;;;;0.65;0.35;;;15.40;96.00;;;;;;5046544;28;20151;-71
2021/07/01 04:28:49;;;;;;;1.95;0.40;;;15.20;96.30;;;;;;5046360;28;20434;-71
2021/07/01 04:31:16;;;;;;;1.05;0.43;;;15.20;96.40;;;;;;5046931;28;20017;-72
2021/07/01 04:33:42;;;;;;;1.95;1.00;;;14.70;96.80;;;;;;5046650;28;20099;-71
2021/07/01 04:36:08;;;;;;;1.25;0.60;;;14.80;97.40;;;;;;5046290;28;20041;-71
2021/07/01 04:38:33;;;;;;;0.30;0.30;;;14.80;97.30;;;;;;5041562;28;20036;-71
2021/07/01 04:40:59;;;;;;;1.10;0.40;;;14.80;97.00;;;;;;5044167;28;20033;-71
2021/07/01 04:43:25;;;;;;;2.40;0.35;;;15.00;96.70;;;;;;5035982;28;20037;-72
2021/07/01 04:45:50;;;;;;;0.43;0.30;;;15.40;95.70;;;;;;5045387;28;20033;-71
2021/07/01 04:48:16;;;;;;;1.10;0.40;;;15.60;95.70;;;;;;5044628;28;20395;-71
2021/07/01 04:50:42;;;;;;;1.33;0.43;;;15.70;95.70;;;;;;5046430;28;20958;-71
2021/07/01 04:53:08;;;;;;;1.08;0.40;;;15.70;95.60;;;;;;5045616;28;20033;-71
2021/07/01 04:55:33;;;;;;;0.73;0.38;;;15.80;95.70;;;;;;5045544;28;20035;-71
2021/07/01 04:57:59;;;;;;;3.10;0.90;;;15.80;95.40;;;;;;5045993;28;20548;-72
2021/07/01 05:00:25;;;;;;;1.13;0.50;;;15.90;95.20;;;;;;5045820;28;20482;-72
2021/07/01 05:02:51;;;;;;;1.65;0.40;;;15.80;95.40;;;;;;5046337;28;20454;-71
2021/07/01 05:05:16;;;;;;;3.80;1.15;;;15.80;95.10;;;;;;5045287;28;20437;-71
2021/07/01 05:07:43;;;;;;;0.85;0.38;;;15.90;95.20;;;;;;5045595;28;20049;-71
2021/07/01 05:10:10;;;;;;;1.42;0.70;;;15.90;95.30;;;;;;5046234;28;20024;-71
2021/07/01 05:12:36;;;;;;;2.15;0.55;;;16.00;95.00;;;;;;5045854;28;20306;-71
2021/07/01 05:15:03;;;;;;;1.23;0.60;;;16.10;95.10;;;;;;5044942;28;20108;-71
2021/07/01 05:17:28;;;;;;;7.97;0.90;;;16.00;95.00;;;;;;5045823;28;20075;-71
2021/07/01 05:19:54;;;;;;;0.82;0.35;;;16.00;95.30;;;;;;5045442;28;20048;-71
2021/07/01 05:22:20;;;;;;;1.88;0.68;;;16.00;95.70;;;;;;5046000;28;20391;-71
2021/07/01 05:24:45;;;;;;;1.92;0.60;;;16.00;95.50;;;;;;5044930;28;20096;-72
2021/07/01 05:27:11;;;;;;;4.18;0.60;;;16.20;95.40;;;;;;5046574;28;20467;-71
2021/07/01 05:29:37;;;;;;;1.58;0.65;;;16.20;96.00;;;;;;5049798;28;20568;-72
2021/07/01 05:32:03;;;;;;;1.27;0.35;;;16.20;95.60;;;;;;5042284;28;20048;-71
2021/07/01 05:34:28;;;;;;;3.22;0.60;;;16.20;95.40;;;;;;5043095;28;20428;-72
2021/07/01 05:36:54;;;;;;;0.55;0.30;;;16.20;95.00;;;;;;5038588;28;20025;-71
2021/07/01 05:39:20;;;;;;;1.33;0.40;;;16.20;95.10;;;;;;5030977;28;20024;-71
2021/07/01 05:41:45;;;;;;;1.05;0.40;;;16.30;95.30;;;;;;5043763;28;20086;-71
2021/07/01 05:44:11;;;;;;;0.55;0.30;;;16.40;95.20;;;;;;5043649;28;20025;-71
2021/07/01 05:46:37;;;;;;;1.20;0.80;;;16.50;94.60;;;;;;5043427;28;20095;-71
2021/07/01 05:49:02;;;;;;;0.90;0.52;;;16.60;93.90;;;;;;5043232;28;20051;-72
2021/07/01 05:51:30;;;;;;;0.88;0.30;;;16.60;94.00;;;;;;5043761;28;20086;-72
2021/07/01 05:54:04;;;;;;;1.17;0.60;;;16.80;94.40;;;;;;5043707;28;20031;-72
2021/07/01 05:56:36;;;;;;;0.57;0.28;;;16.80;93.60;;;;;;5044822;28;20029;-72
2021/07/01 05:59:07;;;;;;;1.95;0.47;;;16.80;93.50;;;;;;5045358;28;20052;-72
2021/07/01 06:01:35;;;;;;;0.75;0.30;;;16.80;93.70;;;;;;5055072;28;20102;-72
2021/07/01 06:04:07;;;;;;;0.77;0.45;;;16.80;93.90;;;;;;5045435;28;20025;-72
2021/07/01 06:06:35;;;;;;;2.28;0.50;;;17.00;93.50;;;;;;5045191;28;20112;-72
2021/07/01 06:09:05;;;;;;;1.88;0.25;;;17.00;93.50;;;;;;5044572;28;20025;-72
2021/07/01 06:11:34;;;;;;;1.25;0.50;;;17.20;93.60;;;;;;5045202;28;20412;-72
2021/07/01 06:14:02;;;;;;;0.68;0.40;;;17.10;92.90;;;;;;5045094;28;20503;-72
2021/07/01 06:16:31;;;;;;;1.40;0.40;;;17.10;93.10;;;;;;5045012;28;20060;-72
2021/07/01 06:18:56;;;;;;;1.10;0.43;;;17.30;93.20;;;;;;5044450;28;20129;-72
2021/07/01 06:21:23;;;;;;;1.45;0.30;;;17.30;93.00;;;;;;5045110;28;20066;-72
2021/07/01 06:23:49;;;;;;;2.33;0.40;;;17.10;93.30;;;;;;5045082;28;20032;-72
2021/07/01 06:26:23;;;;;;;1.17;0.55;;;17.10;93.40;;;;;;5044911;28;20039;-72
2021/07/01 06:28:49;;;;;;;;;;;17.20;93.70;;;;;;5044945;28;20533;-72
2021/07/01 06:31:14;;;;;;;1.25;0.57;;;17.30;93.80;;;;;;5044692;28;19913;-72
2021/07/01 06:33:42;;;;;;;4.35;0.45;;;17.40;93.90;;;;;;5044754;28;20048;-72
2021/07/01 06:36:09;;;;;;;1.25;0.50;;;17.40;93.80;;;;;;5044488;28;20052;-72
2021/07/01 06:38:36;;;;;;;1.20;0.47;;;17.30;93.60;;;;;;5033898;28;20514;-72
2021/07/01 06:41:06;;;;;;;2.90;0.80;;;17.30;93.60;;;;;;5028878;28;20029;-72
2021/07/01 06:43:32;;;;;;;1.58;0.60;;;17.40;93.70;;;;;;5039538;28;20032;-72
2021/07/01 06:46:00;;;;;;;2.65;0.55;;;17.50;93.60;;;;;;5021439;28;20035;-72
2021/07/01 06:48:26;;;;;;;2.08;0.50;;;17.50;93.00;;;;;;5022856;28;20041;-72
2021/07/01 06:50:56;;;;;;;0.93;0.35;;;17.50;92.90;;;;;;5039365;28;20029;-72
2021/07/01 06:53:22;;;;;;;0.90;0.40;;;17.60;93.70;;;;;;5042467;28;20033;-72
2021/07/01 06:55:51;;;;;;;2.85;0.50;;;17.80;93.60;;;;;;5042568;28;20495;-72
2021/07/01 06:58:17;;;;;;;3.10;0.80;;;17.90;93.60;;;;;;5042794;28;20116;-72
2021/07/01 07:00:43;;;;;;;5.88;0.52;;;17.80;93.20;;;;;;5043092;28;20044;-72
2021/07/01 07:03:18;;;;;;;26.80;3.35;;;17.80;93.10;;;;;;5043460;28;20098;-72
2021/07/01 07:05:52;;;;;;;2.67;0.50;;;17.90;93.00;;;;;;5044451;28;20032;-71
2021/07/01 07:08:18;;;;;;;;;;;17.90;93.10;;;;;;5045242;28;20045;-73
2021/07/01 07:10:45;;;;;;;1.52;0.60;;;17.80;93.50;;;;;;5044522;28;19908;-72
2021/07/01 07:13:12;;;;;;;0.60;0.30;;;18.00;92.90;;;;;;5043232;28;20029;-72
2021/07/01 07:15:40;;;;;;;3.28;0.38;;;18.10;92.80;;;;;;5044279;28;20025;-72
2021/07/01 07:18:22;;;;;;;1.15;0.35;;;18.00;92.90;;;;;;5043918;28;20039;-72
2021/07/01 07:20:56;;;;;;;1.35;0.50;;;18.20;93.30;;;;;;5044699;28;20098;-72
2021/07/01 07:23:33;;;;;;;1.02;0.45;;;18.20;92.50;;;;;;5043874;28;20033;-72
2021/07/01 07:26:04;;;;;;;3.00;0.65;;;18.20;92.60;;;;;;5043846;28;20036;-72
2021/07/01 07:28:31;;;;;;;0.50;0.32;;;18.10;93.00;;;;;;5033628;28;20550;-73
2021/07/01 07:30:57;;;;;;;2.00;0.40;;;18.10;93.20;;;;;;5044038;28;20030;-72
2021/07/01 07:33:33;;;;;;;6.63;0.75;;;18.20;92.90;;;;;;5044290;28;20021;-72
2021/07/01 07:36:00;;;;;;;2.08;0.47;;;18.20;92.80;;;;;;5043385;28;20049;-72
2021/07/01 07:38:27;;;;;;;2.33;0.82;;;18.30;92.50;;;;;;5043889;28;20566;-72
2021/07/01 07:40:54;;;;;;;2.70;0.50;;;18.40;92.70;;;;;;5044000;28;20025;-72
2021/07/01 07:43:25;;;;;;;1.70;0.63;;;18.80;92.10;;;;;;5043823;28;20043;-72
2021/07/01 07:45:53;;;;;;;4.22;0.80;;;19.10;91.80;;;;;;5035113;28;20037;-72
2021/07/01 07:48:19;;;;;;;1.95;0.60;;;19.10;91.90;;;;;;5026277;28;20045;-72
2021/07/01 07:50:50;;;;;;;3.80;0.70;;;19.40;91.40;;;;;;5031742;28;20145;-72
2021/07/01 07:53:21;;;;;;;2.65;0.70;;;19.60;91.00;;;;;;5037908;28;20035;-72
2021/07/01 07:55:52;;;;;;;2.38;0.73;;;20.00;91.00;;;;;;5045742;28;20031;-72
2021/07/01 07:58:20;;;;;;;3.42;0.85;;;20.00;90.70;;;;;;5045380;28;20533;-72
2021/07/01 08:00:47;;;;;;;1.55;0.55;;;20.50;90.80;;;;;;5045970;28;20050;-72
2021/07/01 08:03:13;;;;;;;1.73;0.30;;;20.90;90.20;;;;;;5046241;28;20021;-72
2021/07/01 08:05:39;;;;;;;1.75;0.47;;;21.10;90.40;;;;;;5045742;28;20029;-72
2021/07/01 08:08:11;;;;;;;2.53;0.47;;;21.20;89.50;;;;;;5044360;28;20544;-72
2021/07/01 08:10:40;;;;;;;4.20;0.80;;;21.60;88.80;;;;;;5045997;28;20029;-72
2021/07/01 08:13:06;;;;;;;1.40;0.47;;;21.80;88.90;;;;;;5047213;28;20021;-72
2021/07/01 08:15:37;;;;;;;0.40;0.30;;;21.80;86.10;;;;;;5047154;28;20166;-72
2021/07/01 08:18:04;;;;;;;1.35;0.22;;;21.80;83.00;;;;;;5045740;28;20017;-72
2021/07/01 08:20:30;;;;;;;0.52;0.30;;;22.00;83.00;;;;;;5045594;28;20033;-72
2021/07/01 08:22:57;;;;;;;2.38;0.40;;;22.60;82.00;;;;;;5046678;28;20092;-71
2021/07/01 08:25:25;;;;;;;0.95;0.30;;;22.40;82.00;;;;;;5046999;28;20467;-71
2021/07/01 08:27:52;;;;;;;1.13;0.28;;;22.50;81.10;;;;;;5046793;28;20044;-71
2021/07/01 08:30:23;;;;;;;0.40;0.30;;;22.60;82.60;;;;;;5048100;28;20166;-72
2021/07/01 08:32:57;;;;;;;2.90;0.40;;;22.90;82.90;;;;;;5052821;28;20499;-71
2021/07/01 08:35:26;;;;;;;1.92;0.47;;;22.80;83.80;;;;;;5044357;28;20056;-71
2021/07/01 08:37:55;;;;;;;2.88;0.45;;;22.80;83.80;;;;;;5046817;28;20055;-71
2021/07/01 08:40:26;;;;;;;0.90;0.40;;;22.50;82.50;;;;;;5033454;28;20071;-71
2021/07/01 08:42:54;;;;;;;1.15;0.32;;;22.40;83.50;;;;;;5040749;28;20028;-71
2021/07/01 08:45:25;;;;;;;1.40;0.50;;;22.20;83.10;;;;;;5046149;28;20033;-71
2021/07/01 08:47:59;;;;;;;1.85;0.28;;;22.60;80.60;;;;;;5045855;28;20605;-70
2021/07/01 08:50:28;;;;;;;1.33;0.52;;;22.40;83.00;;;;;;5045775;28;20024;-71
2021/07/01 08:53:09;;;;;;;1.70;0.50;;;22.80;84.20;;;;;;5035006;28;20092;-71
2021/07/01 08:55:40;;;;;;;1.55;0.40;;;23.10;83.40;;;;;;5025797;28;20025;-71
2021/07/01 08:58:09;;;;;;;2.58;0.47;;;23.10;82.20;;;;;;5034304;28;20057;-71
2021/07/01 09:00:39;;;;;;;1.27;0.35;;;22.90;80.20;;;;;;5045465;28;20139;-71
2021/07/01 09:03:09;;;;;;;2.00;0.47;;;22.70;83.40;;;;;;5044084;28;20078;-72
2021/07/01 09:05:37;;;;;;;3.58;0.40;;;22.90;80.90;;;;;;5044800;28;20505;-72
2021/07/01 09:08:14;;;;;;;2.85;0.43;;;23.40;83.20;;;;;;5045277;28;20040;-71
2021/07/01 09:10:53;;;;;;;2.58;0.50;;;23.50;81.50;;;;;;5045136;28;20070;-71
2021/07/01 09:13:22;;;;;;;1.38;0.55;;;23.60;83.10;;;;;;5045244;28;20397;-71
2021/07/01 09:15:49;;;;;;;0.55;0.43;;;23.70;81.20;;;;;;5045711;28;20037;-71
2021/07/01 09:18:16;;;;;;;0.68;0.40;;;23.50;79.40;;;;;;5052963;28;20028;-71
2021/07/01 09:20:42;;;;;;;1.63;0.55;;;23.40;80.00;;;;;;5064570;28;20024;-71
2021/07/01 09:23:11;;;;;;;2.95;0.43;;;23.70;79.30;;;;;;5065008;28;20024;-71
2021/07/01 09:25:40;;;;;;;2.15;0.75;;;23.60;79.10;;;;;;5065211;28;20112;-71
2021/07/01 09:28:06;;;;;;;0.75;0.50;;;24.00;80.80;;;;;;5061960;28;20777;-71
2021/07/01 09:30:33;;;;;;;24.42;1.63;;;24.20;80.70;;;;;;5045114;28;20503;-71
2021/07/01 09:33:07;;;;;;;6.70;0.68;;;24.30;79.40;;;;;;5045309;28;20553;-71
2021/07/01 09:35:36;;;;;;;;;;;23.90;79.40;;;;;;5045619;28;20431;-70
2021/07/01 09:38:05;;;;;;;2.67;0.60;;;24.00;78.50;;;;;;5045271;28;19959;-71
2021/07/01 09:40:33;;;;;;;2.85;0.60;;;24.30;79.80;;;;;;5043669;28;20026;-71
2021/07/01 09:43:02;;;;;;;1.63;0.63;;;23.70;79.70;;;;;;5045639;28;20037;-72
2021/07/01 09:45:29;;;;;;;1.05;0.38;;;24.30;79.00;;;;;;5045827;28;20025;-71
2021/07/01 09:48:17;;;;;;;4.70;0.65;;;24.50;79.70;;;;;;5045392;28;20045;-71
2021/07/01 09:50:46;;;;;;;3.10;0.32;;;24.50;79.10;;;;;;5041172;28;20028;-71
2021/07/01 09:53:33;;;;;;;1.75;0.47;;;24.50;77.70;;;;;;5045416;28;20021;-71
2021/07/01 09:56:06;;;;;;;3.72;0.50;;;24.70;77.00;;;;;;5045447;28;20032;-71
2021/07/01 09:58:36;;;;;;;;;;;24.70;77.90;;;;;;5037350;28;20116;-71
2021/07/01 10:01:02;;;;;;;1.50;0.35;;;24.70;76.90;;;;;;5025155;28;20045;-71
2021/07/01 10:03:28;;;;;;;1.80;0.43;;;24.90;76.60;;;;;;5025153;28;20602;-71
2021/07/01 10:05:53;;;;;;;1.60;0.30;;;25.00;76.20;;;;;;5037472;28;20079;-71
2021/07/01 10:08:19;;;;;;;1.48;0.38;;;24.80;76.00;;;;;;5023265;28;20125;-71
2021/07/01 10:10:47;;;;;;;1.35;0.30;;;25.00;76.40;;;;;;5023524;28;20455;-73
2021/07/01 10:13:13;;;;;;;1.52;0.57;;;24.70;76.00;;;;;;5038689;28;20029;-71
2021/07/01 10:15:41;;;;;;;3.97;0.40;;;25.10;76.20;;;;;;5042920;28;20033;-72
2021/07/01 10:18:10;;;;;;;2.03;0.30;;;25.80;75.50;;;;;;5042848;28;20029;-71
2021/07/01 10:20:51;;;;;;;3.65;0.40;;;25.20;75.00;;;;;;5043387;28;20061;-73
2021/07/01 10:23:24;;;;;;;2.65;0.40;;;25.80;75.80;;;;;;5043256;28;20037;-74
2021/07/01 10:25:52;;;;;;;0.80;0.38;;;26.40;74.80;;;;;;5044576;28;20032;-72
2021/07/01 10:28:20;;;;;;;1.40;0.40;;;26.40;74.40;;;;;;5045126;28;20033;-71
2021/07/01 10:30:56;;;;;;;3.60;0.60;;;26.00;74.30;;;;;;5045256;28;20028;-75
2021/07/01 10:33:23;;;;;;;2.17;0.28;;;26.10;74.70;;;;;;5045126;28;20025;-75
2021/07/01 10:35:49;;;;;;;4.18;0.35;;;26.20;73.70;;;;;;5044851;28;20055;-75
2021/07/01 10:38:15;;;;;;;1.73;0.38;;;25.80;73.40;;;;;;5045263;28;20064;-74
2021/07/01 10:40:49;;;;;;;0.75;0.30;;;25.80;73.90;;;;;;5044800;28;20062;-76
2021/07/01 10:43:17;;;;;;;;;;;26.20;75.80;;;;;;5045053;28;20501;-74
2021/07/01 10:45:57;;;;;;;0.88;0.40;;;26.20;73.60;;;;;;5045450;28;20023;-75
2021/07/01 10:48:23;;;;;;;0.80;0.30;;;26.20;74.10;;;;;;5024861;28;20069;-75
2021/07/01 10:50:51;;;;;;;2.10;0.30;;;26.10;72.90;;;;;;5029275;28;20025;-74
2021/07/01 10:53:29;;;;;;;3.88;0.52;;;25.90;72.90;;;;;;5044860;28;20040;-75
2021/07/01 10:56:06;;;;;;;1.83;0.30;;;26.00;73.60;;;;;;5044465;28;20364;-75
2021/07/01 10:58:32;;;;;;;3.08;0.40;;;26.00;73.80;;;;;;5045053;28;20027;-75
2021/07/01 11:01:00;;;;;;;0.70;0.25;;;26.10;72.20;;;;;;5044172;28;20022;-75
2021/07/01 11:03:33;;;;;;;0.93;0.30;;;26.40;72.70;;;;;;5044288;28;20444;-75
2021/07/01 11:06:01;;;;;;;0.45;0.20;;;26.00;72.90;;;;;;5040226;28;20028;-75
2021/07/01 11:08:32;;;;;;;2.20;0.40;;;26.10;72.60;;;;;;5037249;28;20030;-75
2021/07/01 11:11:01;;;;;;;3.45;0.40;;;26.80;73.40;;;;;;5042546;28;20021;-75
2021/07/01 11:13:29;;;;;;;4.30;0.60;;;26.80;74.20;;;;;;5043358;28;20021;-74
2021/07/01 11:16:05;;;;;;;0.75;0.32;;;26.90;73.50;;;;;;5042257;28;20037;-75
2021/07/01 11:18:38;;;;;;;0.98;0.40;;;26.50;72.30;;;;;;5044493;28;20025;-75
2021/07/01 11:21:11;;;;;;;0.40;0.20;;;26.60;71.60;;;;;;5044331;28;20043;-76
2021/07/01 11:23:38;;;;;;;0.90;0.30;;;26.50;71.90;;;;;;5044018;28;20426;-75
2021/07/01 11:26:31;;;;;;;0.82;0.20;;;27.10;72.40;;;;;;5044057;28;20398;-76
2021/07/01 11:28:59;;;;;;;0.20;0.10;;;26.70;71.30;;;;;;5047257;28;20037;-75
2021/07/01 11:31:44;;;;;;;1.52;0.20;;;26.70;71.40;;;;;;5046397;28;20392;-75
2021/07/01 11:34:13;;;;;;;1.08;0.25;;;27.50;71.90;;;;;;5047044;28;20032;-75
2021/07/01 11:36:39;;;;;;;0.90;0.20;;;27.30;70.90;;;;;;5047804;28;20089;-75
2021/07/01 11:39:17;;;;;;;0.95;0.22;;;27.30;72.60;;;;;;5048596;28;20033;-75
2021/07/01 11:41:45;;;;;;;0.77;0.40;;;28.00;72.00;;;;;;5045849;28;20116;-75
2021/07/01 11:44:12;;;;;;;1.65;0.30;;;28.10;71.70;;;;;;5047078;28;20524;-75
2021/07/01 11:46:43;;;;;;;1.73;0.40;;;28.00;70.90;;;;;;5047557;28;20567;-75
2021/07/01 11:49:10;;;;;;;0.77;0.30;;;28.00;70.50;;;;;;5047516;28;20055;-74
2021/07/01 11:51:37;;;;;;;1.10;0.13;;;28.30;71.10;;;;;;5047855;28;20507;-76
2021/07/01 11:54:03;;;;;;;3.33;0.30;;;28.40;71.30;;;;;;5046356;28;20067;-74
2021/07/01 11:56:30;;;;;;;1.10;0.38;;;28.20;71.30;;;;;;5047256;28;20032;-75
2021/07/01 11:58:55;;;;;;;2.00;0.28;;;28.60;70.20;;;;;;5047718;28;20036;-75
2021/07/01 12:01:21;;;;;;;1.35;0.20;;;28.80;69.30;;;;;;5042825;28;20033;-74
2021/07/01 12:03:49;;;;;;;0.85;0.22;;;28.90;69.80;;;;;;5028482;28;20057;-75
2021/07/01 12:06:30;;;;;;;1.90;0.43;;;28.90;69.50;;;;;;5028875;28;20017;-75
2021/07/01 12:08:56;;;;;;;1.05;0.30;;;28.40;67.60;;;;;;5028416;28;20041;-75
2021/07/01 12:11:22;;;;;;;0.80;0.20;;;28.30;68.90;;;;;;5031681;28;20048;-75
2021/07/01 12:13:47;;;;;;;0.32;0.17;;;28.00;69.10;;;;;;5027582;28;20025;-75
2021/07/01 12:16:17;;;;;;;0.35;0.15;;;28.20;68.20;;;;;;5046138;28;20037;-74
2021/07/01 12:19:01;;;;;;;28.33;1.95;;;28.50;69.80;;;;;;5030805;28;20089;-75
2021/07/01 12:21:30;;;;;;;0.68;0.10;;;29.00;69.90;;;;;;5027119;28;20049;-75
2021/07/01 12:23:58;;;;;;;106.90;7.13;;;29.30;68.70;;;;;;5046322;28;20684;-75
2021/07/01 12:26:39;;;;;;;1.10;0.30;;;29.10;68.40;;;;;;5047030;28;20021;-75
2021/07/01 12:29:08;;;;;;;1.50;0.22;;;29.00;68.60;;;;;;5046589;28;20037;-75
2021/07/01 12:31:36;;;;;;;2.08;0.10;;;28.90;68.80;;;;;;5047536;28;20037;-75
2021/07/01 12:34:04;;;;;;;8.13;0.40;;;27.80;68.60;;;;;;5046779;28;20433;-74
2021/07/01 12:36:44;;;;;;;1.38;0.35;;;27.80;69.90;;;;;;5055827;28;20507;-75
2021/07/01 12:39:13;;;;;;;0.30;0.20;;;27.90;69.00;;;;;;5058286;28;20079;-75
2021/07/01 12:41:55;;;;;;;2.25;0.25;;;28.10;68.60;;;;;;5046488;28;20045;-74
2021/07/01 12:44:42;;;;;;;0.28;0.10;;;28.20;68.00;;;;;;5047389;28;20028;-74
2021/07/01 12:47:26;;;;;;;0.20;0.10;;;28.40;66.90;;;;;;5046448;28;20037;-75
2021/07/01 12:49:54;;;;;;;0.85;0.28;;;28.20;68.00;;;;;;5046797;28;20107;-75
2021/07/01 12:52:21;;;;;;;1.65;0.20;;;27.70;67.80;;;;;;5041504;28;20048;-75